Search the data

BODC Cruise Metadata Report for FRV Clupea (74CU) cruise 1302C

Introduction

This report collates information from the BODC cruise inventory and oceanographic databases. It presents

Cruise Inventory Information

Long name FRV Clupea (74CU) cruise 1302C
Short name 1302C
Objectives and Narrative To conduct a 'summer' survey of a suite of sea lochs impacted to varying degrees by nutrient releases from fish farming activity. This survey will form part of a programme of work to assess the potential for eutrophication arising from nutrient 'hotspots' linked to aquaculture. This will be undertaken by measuring the following parameters at multiple stations in each loch: CTD; nutrients and silicates; chlorophyll; phytoplankton.
These determinands will be assessed against criteria as defined by the OSPAR Eutrophication Task Group (ETG).
Ship FRV Clupea
Departure Port Fraserburgh, United Kingdom
Departure Date 2002-08-23
Arrival Port Fraserburgh, United Kingdom
Arrival Date 2002-09-05
Principal Scientist(s) Matt Gubbins (Fisheries Research Services Aberdeen Marine Laboratory)
Responsible Organisation Fisheries Research Services Aberdeen Marine Laboratory
Associated Project(s) Survey of nutrient enhancement effects
IHB Sea Areas Visited North Sea, Inner Seas off the West Coast of Scotland
Marsden Squares Visited 181;4/217;1
Work Area Description 13 lochs: Ewe, Torridon, Snizort Beg, Uig, Grimshader, Sandsound Voe, Vaila Sound, Aith Voe, Olna Firth, Swinning Voe, Collafirth Voe, Busta Voe, Dales Voe
Work Area Bounding Polygon 55N,10W; 65N,10W; 65N,0E; 55N,0E; 55N,10W
Southern Limit 55N
Northern Limit 65N
Western Limit 10W
Eastern Limit 0E

Cruise Inventory Datasets

Physical oceanography  
CTD stations Quantity: number of profiles = 85
Description: Sealogger CTD profiles  
Water bottle stations Quantity: number of profiles = 85
Description: 1-6 depth water sampling stations, by 12 bottle rosette sampler  
Chemical oceanography  
Ammonia Quantity: number of samples = 525
Description: Ammonia measurements from water samples in H09 stations above  
Phosphate Quantity: number of samples = 525
Description: o-phosphate measurements from water samples in H09 stations above  
Silicate Quantity: number of samples = 525
Description: Silicate measurements from water samples in H09 stations above  
Total - N Quantity: number of samples = 525
Description: ToxN measurements from water samples in H09 stations above  
Biology and fisheries  
Phytoplankton Quantity: number of samples = 80
Description: 10 m, integrated depth, hose samples for phytoplankton abundance  
Phytoplankton pigs (eg chlorophyll, fluorescence) Quantity: number of samples = 250
Description: Direct chlorophyll measurements from discrete depths for CTD calibration  

Cruise Inventory Mooring/Buoy Operations

No information on datasets is currently available

Summary of BODC Data Holdings for the Cruise

National Oceanographic Database

Summary

# Series Instrument Description Parameters
102 CTD/STD cast Density of the water column
Electrical conductivity of the water column
Raw fluorometer output
Salinity of the water column
Temperature of the water column
Vertical spatial coordinates

Note: Parameter terms are taken from the BODC Parameter Discovery Vocabulary XML (SKOS)

Full List

BODC Reference Instrument Description Date/Time Location  
614106 CTD/STD cast 2002-08-24 07:27Z 60° 24' N, 1° 9' W Click for more
614118 CTD/STD cast 2002-08-24 07:59Z 60° 24' N, 1° 9' W Click for more
614131 CTD/STD cast 2002-08-24 08:21Z 60° 24' N, 1° 9' W Click for more
614143 CTD/STD cast 2002-08-24 08:54Z 60° 24' N, 1° 9' W Click for more
614155 CTD/STD cast 2002-08-24 09:13Z 60° 23' N, 1° 9' W Click for more
614167 CTD/STD cast 2002-08-24 09:31Z 60° 23' N, 1° 9' W Click for more
614179 CTD/STD cast 2002-08-24 09:47Z 60° 23' N, 1° 10' W Click for more
614180 CTD/STD cast 2002-08-25 07:31Z 60° 25' N, 1° 12' W Click for more
614192 CTD/STD cast 2002-08-25 07:50Z 60° 25' N, 1° 12' W Click for more
614211 CTD/STD cast 2002-08-25 08:13Z 60° 24' N, 1° 13' W Click for more
614223 CTD/STD cast 2002-08-25 08:24Z 60° 24' N, 1° 14' W Click for more
614235 CTD/STD cast 2002-08-25 08:59Z 60° 25' N, 1° 10' W Click for more
614247 CTD/STD cast 2002-08-25 09:16Z 60° 24' N, 1° 10' W Click for more
614259 CTD/STD cast 2002-08-25 09:32Z 60° 24' N, 1° 11' W Click for more
614260 CTD/STD cast 2002-08-25 09:50Z 60° 24' N, 1° 11' W Click for more
614272 CTD/STD cast 2002-08-25 10:09Z 60° 24' N, 1° 12' W Click for more
614284 CTD/STD cast 2002-08-25 10:24Z 60° 24' N, 1° 12' W Click for more
614296 CTD/STD cast 2002-08-25 10:40Z 60° 24' N, 1° 13' W Click for more
614303 CTD/STD cast 2002-08-26 08:14Z 60° 18' N, 1° 22' W Click for more
614315 CTD/STD cast 2002-08-26 08:49Z 60° 18' N, 1° 22' W Click for more
614327 CTD/STD cast 2002-08-26 09:09Z 60° 17' N, 1° 22' W Click for more
614339 CTD/STD cast 2002-08-26 09:28Z 60° 17' N, 1° 22' W Click for more
614340 CTD/STD cast 2002-08-26 09:49Z 60° 18' N, 1° 22' W Click for more
614352 CTD/STD cast 2002-08-26 10:06Z 60° 18' N, 1° 22' W Click for more
614364 CTD/STD cast 2002-08-26 10:26Z 60° 19' N, 1° 24' W Click for more
614376 CTD/STD cast 2002-08-26 10:41Z 60° 19' N, 1° 22' W Click for more
614388 CTD/STD cast 2002-08-26 10:59Z 60° 19' N, 1° 22' W Click for more
614407 CTD/STD cast 2002-08-26 12:17Z 60° 23' N, 1° 21' W Click for more
614419 CTD/STD cast 2002-08-26 12:36Z 60° 22' N, 1° 21' W Click for more
614420 CTD/STD cast 2002-08-26 13:00Z 60° 22' N, 1° 22' W Click for more
614432 CTD/STD cast 2002-08-26 14:07Z 60° 21' N, 1° 20' W Click for more
614444 CTD/STD cast 2002-08-26 14:27Z 60° 21' N, 1° 19' W Click for more
614456 CTD/STD cast 2002-08-26 14:45Z 60° 21' N, 1° 19' W Click for more
614468 CTD/STD cast 2002-08-26 15:03Z 60° 21' N, 1° 18' W Click for more
614481 CTD/STD cast 2002-08-26 15:22Z 60° 21' N, 1° 18' W Click for more
614493 CTD/STD cast 2002-08-26 15:42Z 60° 21' N, 1° 17' W Click for more
614500 CTD/STD cast 2002-08-26 16:45Z 60° 21' N, 1° 17' W Click for more
614512 CTD/STD cast 2002-08-26 17:03Z 60° 21' N, 1° 16' W Click for more
614524 CTD/STD cast 2002-08-27 10:03Z 60° 12' N, 1° 33' W Click for more
614536 CTD/STD cast 2002-08-27 10:32Z 60° 12' N, 1° 34' W Click for more
614548 CTD/STD cast 2002-08-27 11:44Z 60° 12' N, 1° 34' W Click for more
614561 CTD/STD cast 2002-08-27 12:07Z 60° 13' N, 1° 34' W Click for more
614573 CTD/STD cast 2002-08-27 12:23Z 60° 13' N, 1° 35' W Click for more
614585 CTD/STD cast 2002-08-27 12:39Z 60° 12' N, 1° 35' W Click for more
614597 CTD/STD cast 2002-08-27 12:59Z 60° 13' N, 1° 33' W Click for more
614604 CTD/STD cast 2002-08-27 13:19Z 60° 13' N, 1° 33' W Click for more
614616 CTD/STD cast 2002-08-27 13:43Z 60° 13' N, 1° 34' W Click for more
614628 CTD/STD cast 2002-08-28 07:13Z 60° 12' N, 1° 36' W Click for more
614641 CTD/STD cast 2002-08-28 08:50Z 60° 12' N, 1° 21' W Click for more
614653 CTD/STD cast 2002-08-28 09:08Z 60° 12' N, 1° 21' W Click for more
614665 CTD/STD cast 2002-08-28 09:26Z 60° 12' N, 1° 21' W Click for more
614677 CTD/STD cast 2002-08-28 09:42Z 60° 12' N, 1° 21' W Click for more
614689 CTD/STD cast 2002-08-28 10:00Z 60° 13' N, 1° 21' W Click for more
614690 CTD/STD cast 2002-08-28 10:14Z 60° 13' N, 1° 22' W Click for more
614708 CTD/STD cast 2002-08-28 10:29Z 60° 13' N, 1° 22' W Click for more
614721 CTD/STD cast 2002-08-28 11:39Z 60° 13' N, 1° 22' W Click for more
614733 CTD/STD cast 2002-08-28 11:56Z 60° 14' N, 1° 22' W Click for more
614745 CTD/STD cast 2002-08-28 12:09Z 60° 14' N, 1° 22' W Click for more
614757 CTD/STD cast 2002-08-28 12:29Z 60° 14' N, 1° 23' W Click for more
614769 CTD/STD cast 2002-08-28 12:55Z 60° 12' N, 1° 21' W Click for more
614770 CTD/STD cast 2002-08-28 13:17Z 60° 12' N, 1° 21' W Click for more
614782 CTD/STD cast 2002-08-28 13:33Z 60° 12' N, 1° 21' W Click for more
614794 CTD/STD cast 2002-08-28 13:56Z 60° 12' N, 1° 21' W Click for more
614801 CTD/STD cast 2002-08-30 11:16Z 57° 52' N, 5° 40' W Click for more
614813 CTD/STD cast 2002-08-30 11:39Z 57° 51' N, 5° 39' W Click for more
614825 CTD/STD cast 2002-08-30 11:59Z 57° 49' N, 5° 39' W Click for more
614837 CTD/STD cast 2002-08-30 12:20Z 57° 49' N, 5° 38' W Click for more
614849 CTD/STD cast 2002-08-30 12:39Z 57° 48' N, 5° 37' W Click for more
614850 CTD/STD cast 2002-08-30 13:01Z 57° 46' N, 5° 37' W Click for more
614862 CTD/STD cast 2002-08-30 13:53Z 57° 51' N, 5° 36' W Click for more
614874 CTD/STD cast 2002-08-31 10:16Z 57° 34' N, 5° 45' W Click for more
614886 CTD/STD cast 2002-08-31 10:37Z 57° 34' N, 5° 43' W Click for more
614898 CTD/STD cast 2002-08-31 11:37Z 57° 33' N, 5° 42' W Click for more
614905 CTD/STD cast 2002-08-31 11:56Z 57° 33' N, 5° 41' W Click for more
614917 CTD/STD cast 2002-08-31 12:29Z 57° 32' N, 5° 40' W Click for more
614929 CTD/STD cast 2002-08-31 12:51Z 57° 32' N, 5° 39' W Click for more
614930 CTD/STD cast 2002-08-31 13:09Z 57° 31' N, 5° 39' W Click for more
614942 CTD/STD cast 2002-08-31 13:37Z 57° 33' N, 5° 37' W Click for more
614954 CTD/STD cast 2002-08-31 13:57Z 57° 32' N, 5° 35' W Click for more
614966 CTD/STD cast 2002-08-31 14:13Z 57° 32' N, 5° 33' W Click for more
614978 CTD/STD cast 2002-08-31 14:27Z 57° 32' N, 5° 33' W Click for more
614991 CTD/STD cast 2002-08-31 14:59Z 57° 32' N, 5° 38' W Click for more
615005 CTD/STD cast 2002-08-31 15:09Z 57° 32' N, 5° 38' W Click for more
615017 CTD/STD cast 2002-08-31 15:20Z 57° 32' N, 5° 38' W Click for more
615029 CTD/STD cast 2002-08-31 15:37Z 57° 32' N, 5° 38' W Click for more
615030 CTD/STD cast 2002-09-01 10:12Z 57° 34' N, 6° 22' W Click for more
615042 CTD/STD cast 2002-09-01 10:27Z 57° 34' N, 6° 22' W Click for more
615054 CTD/STD cast 2002-09-01 10:42Z 57° 34' N, 6° 23' W Click for more
615066 CTD/STD cast 2002-09-01 10:59Z 57° 34' N, 6° 23' W Click for more
615078 CTD/STD cast 2002-09-01 12:27Z 57° 34' N, 6° 23' W Click for more
615091 CTD/STD cast 2002-09-01 13:23Z 57° 32' N, 6° 24' W Click for more
615109 CTD/STD cast 2002-09-01 13:42Z 57° 31' N, 6° 22' W Click for more
615110 CTD/STD cast 2002-09-01 14:04Z 57° 30' N, 6° 22' W Click for more
615122 CTD/STD cast 2002-09-01 14:20Z 57° 30' N, 6° 21' W Click for more
615134 CTD/STD cast 2002-09-01 14:42Z 57° 30' N, 6° 21' W Click for more
615146 CTD/STD cast 2002-09-01 14:55Z 57° 30' N, 6° 20' W Click for more
615158 CTD/STD cast 2002-09-01 15:06Z 57° 29' N, 6° 20' W Click for more
615171 CTD/STD cast 2002-09-01 15:19Z 57° 29' N, 6° 19' W Click for more
615183 CTD/STD cast 2002-09-03 19:02Z 58° 9' N, 6° 22' W Click for more
615195 CTD/STD cast 2002-09-03 19:17Z 58° 9' N, 6° 22' W Click for more
615202 CTD/STD cast 2002-09-03 19:31Z 58° 9' N, 6° 22' W Click for more
615214 CTD/STD cast 2002-09-03 19:49Z 58° 9' N, 6° 22' W Click for more

Project Database

No data currently held for this cruise in the BODC Project Database

References

Track Charts

No track charts currently available

Reports

Cruise Report